sensor_id;sensor_type;location;lat;lon;timestamp;P1;durP1;ratioP1;P2;durP2;ratioP2
5867;SDS011;2960;49.142;7.768;2023-07-13T00:00:24;11.57;;;4.80;;
5867;SDS011;2960;49.142;7.768;2023-07-13T00:02:52;11.80;;;5.00;;
5867;SDS011;2960;49.142;7.768;2023-07-13T00:05:21;11.83;;;4.90;;
5867;SDS011;2960;49.142;7.768;2023-07-13T00:07:49;11.27;;;4.60;;
5867;SDS011;2960;49.142;7.768;2023-07-13T00:10:17;11.50;;;4.80;;
5867;SDS011;2960;49.142;7.768;2023-07-13T00:12:44;11.60;;;5.07;;
5867;SDS011;2960;49.142;7.768;2023-07-13T00:15:12;11.23;;;4.70;;
5867;SDS011;2960;49.142;7.768;2023-07-13T00:17:42;11.43;;;4.80;;
5867;SDS011;2960;49.142;7.768;2023-07-13T00:20:10;11.83;;;5.00;;
5867;SDS011;2960;49.142;7.768;2023-07-13T00:22:39;11.60;;;4.90;;
5867;SDS011;2960;49.142;7.768;2023-07-13T00:25:07;11.60;;;4.70;;
5867;SDS011;2960;49.142;7.768;2023-07-13T00:27:37;12.13;;;4.80;;
5867;SDS011;2960;49.142;7.768;2023-07-13T00:30:04;11.33;;;4.60;;
5867;SDS011;2960;49.142;7.768;2023-07-13T00:32:34;12.17;;;5.40;;
5867;SDS011;2960;49.142;7.768;2023-07-13T00:35:01;11.67;;;4.80;;
5867;SDS011;2960;49.142;7.768;2023-07-13T00:37:29;11.80;;;4.60;;
5867;SDS011;2960;49.142;7.768;2023-07-13T00:39:58;11.30;;;4.77;;
5867;SDS011;2960;49.142;7.768;2023-07-13T00:42:25;12.73;;;4.70;;
5867;SDS011;2960;49.142;7.768;2023-07-13T00:45:03;12.60;;;5.00;;
5867;SDS011;2960;49.142;7.768;2023-07-13T00:47:33;11.50;;;4.70;;
5867;SDS011;2960;49.142;7.768;2023-07-13T00:50:00;11.37;;;4.80;;
5867;SDS011;2960;49.142;7.768;2023-07-13T00:52:31;12.00;;;4.80;;
5867;SDS011;2960;49.142;7.768;2023-07-13T00:55:03;11.90;;;4.87;;
5867;SDS011;2960;49.142;7.768;2023-07-13T00:57:31;11.60;;;4.80;;
5867;SDS011;2960;49.142;7.768;2023-07-13T00:59:59;12.70;;;4.90;;
5867;SDS011;2960;49.142;7.768;2023-07-13T01:02:33;11.57;;;4.80;;
5867;SDS011;2960;49.142;7.768;2023-07-13T01:05:04;11.80;;;4.63;;
5867;SDS011;2960;49.142;7.768;2023-07-13T01:07:35;12.30;;;4.80;;
5867;SDS011;2960;49.142;7.768;2023-07-13T01:10:04;11.73;;;4.60;;
5867;SDS011;2960;49.142;7.768;2023-07-13T01:12:33;11.63;;;4.87;;
5867;SDS011;2960;49.142;7.768;2023-07-13T01:15:01;11.30;;;4.70;;
5867;SDS011;2960;49.142;7.768;2023-07-13T01:17:29;11.43;;;4.83;;
5867;SDS011;2960;49.142;7.768;2023-07-13T01:19:59;11.70;;;4.80;;
5867;SDS011;2960;49.142;7.768;2023-07-13T01:22:28;11.27;;;4.80;;
5867;SDS011;2960;49.142;7.768;2023-07-13T01:24:57;11.60;;;4.93;;
5867;SDS011;2960;49.142;7.768;2023-07-13T01:27:25;11.40;;;4.70;;
5867;SDS011;2960;49.142;7.768;2023-07-13T01:29:53;11.03;;;4.43;;
5867;SDS011;2960;49.142;7.768;2023-07-13T01:32:27;11.30;;;4.60;;
5867;SDS011;2960;49.142;7.768;2023-07-13T01:34:56;11.40;;;4.53;;
5867;SDS011;2960;49.142;7.768;2023-07-13T01:37:23;11.47;;;4.70;;
5867;SDS011;2960;49.142;7.768;2023-07-13T01:39:54;11.57;;;4.73;;
5867;SDS011;2960;49.142;7.768;2023-07-13T01:42:23;11.13;;;4.30;;
5867;SDS011;2960;49.142;7.768;2023-07-13T01:44:51;11.27;;;4.57;;
5867;SDS011;2960;49.142;7.768;2023-07-13T01:47:18;11.10;;;4.50;;
5867;SDS011;2960;49.142;7.768;2023-07-13T01:49:45;11.40;;;4.63;;
5867;SDS011;2960;49.142;7.768;2023-07-13T01:52:12;11.30;;;4.50;;
5867;SDS011;2960;49.142;7.768;2023-07-13T01:54:39;11.57;;;4.50;;
5867;SDS011;2960;49.142;7.768;2023-07-13T01:57:08;11.13;;;4.50;;
5867;SDS011;2960;49.142;7.768;2023-07-13T01:59:35;12.40;;;4.63;;
5867;SDS011;2960;49.142;7.768;2023-07-13T02:02:02;11.33;;;4.70;;
5867;SDS011;2960;49.142;7.768;2023-07-13T02:04:29;11.40;;;4.67;;
5867;SDS011;2960;49.142;7.768;2023-07-13T02:06:56;11.73;;;4.63;;
5867;SDS011;2960;49.142;7.768;2023-07-13T02:09:23;11.40;;;4.60;;
5867;SDS011;2960;49.142;7.768;2023-07-13T02:11:51;11.47;;;4.20;;
5867;SDS011;2960;49.142;7.768;2023-07-13T02:14:19;12.10;;;4.73;;
5867;SDS011;2960;49.142;7.768;2023-07-13T02:16:46;11.30;;;4.50;;
5867;SDS011;2960;49.142;7.768;2023-07-13T02:19:13;11.20;;;4.50;;
5867;SDS011;2960;49.142;7.768;2023-07-13T02:21:41;11.70;;;4.90;;
5867;SDS011;2960;49.142;7.768;2023-07-13T02:24:08;11.90;;;4.63;;
5867;SDS011;2960;49.142;7.768;2023-07-13T02:26:35;11.43;;;4.47;;
5867;SDS011;2960;49.142;7.768;2023-07-13T02:29:02;11.50;;;4.47;;
5867;SDS011;2960;49.142;7.768;2023-07-13T02:31:30;12.53;;;4.80;;
5867;SDS011;2960;49.142;7.768;2023-07-13T02:33:58;10.97;;;4.17;;
5867;SDS011;2960;49.142;7.768;2023-07-13T02:36:25;11.60;;;4.67;;
5867;SDS011;2960;49.142;7.768;2023-07-13T02:38:52;11.47;;;4.50;;
5867;SDS011;2960;49.142;7.768;2023-07-13T02:41:19;11.50;;;4.60;;
5867;SDS011;2960;49.142;7.768;2023-07-13T02:43:48;11.20;;;4.60;;
5867;SDS011;2960;49.142;7.768;2023-07-13T02:46:15;11.33;;;4.50;;
5867;SDS011;2960;49.142;7.768;2023-07-13T02:48:43;12.23;;;4.60;;
5867;SDS011;2960;49.142;7.768;2023-07-13T02:51:11;11.20;;;4.57;;
5867;SDS011;2960;49.142;7.768;2023-07-13T02:53:38;11.77;;;4.37;;
5867;SDS011;2960;49.142;7.768;2023-07-13T02:56:06;11.00;;;4.40;;
5867;SDS011;2960;49.142;7.768;2023-07-13T02:58:33;13.20;;;4.73;;
5867;SDS011;2960;49.142;7.768;2023-07-13T03:01:05;11.20;;;4.63;;
5867;SDS011;2960;49.142;7.768;2023-07-13T03:03:34;11.60;;;4.60;;
5867;SDS011;2960;49.142;7.768;2023-07-13T03:06:03;11.10;;;4.50;;
5867;SDS011;2960;49.142;7.768;2023-07-13T03:08:33;11.43;;;4.50;;
5867;SDS011;2960;49.142;7.768;2023-07-13T03:11:00;11.33;;;4.80;;
5867;SDS011;2960;49.142;7.768;2023-07-13T03:13:28;12.00;;;4.43;;
5867;SDS011;2960;49.142;7.768;2023-07-13T03:15:56;10.90;;;4.23;;
5867;SDS011;2960;49.142;7.768;2023-07-13T03:18:23;11.40;;;4.63;;
5867;SDS011;2960;49.142;7.768;2023-07-13T03:20:50;11.30;;;4.43;;
5867;SDS011;2960;49.142;7.768;2023-07-13T03:23:19;11.33;;;4.43;;
5867;SDS011;2960;49.142;7.768;2023-07-13T03:25:48;11.67;;;4.43;;
5867;SDS011;2960;49.142;7.768;2023-07-13T03:28:15;11.37;;;4.60;;
5867;SDS011;2960;49.142;7.768;2023-07-13T03:30:42;11.10;;;4.40;;
5867;SDS011;2960;49.142;7.768;2023-07-13T03:33:09;10.87;;;4.03;;
5867;SDS011;2960;49.142;7.768;2023-07-13T03:35:39;11.43;;;4.40;;
5867;SDS011;2960;49.142;7.768;2023-07-13T03:38:07;10.90;;;4.00;;
5867;SDS011;2960;49.142;7.768;2023-07-13T03:40:35;11.17;;;4.47;;
5867;SDS011;2960;49.142;7.768;2023-07-13T03:43:03;11.93;;;4.37;;
5867;SDS011;2960;49.142;7.768;2023-07-13T03:45:32;11.20;;;4.30;;
5867;SDS011;2960;49.142;7.768;2023-07-13T03:47:59;11.10;;;4.13;;
5867;SDS011;2960;49.142;7.768;2023-07-13T03:50:26;10.93;;;4.10;;
5867;SDS011;2960;49.142;7.768;2023-07-13T03:52:53;11.20;;;4.10;;
5867;SDS011;2960;49.142;7.768;2023-07-13T03:55:21;11.57;;;4.63;;
5867;SDS011;2960;49.142;7.768;2023-07-13T03:57:52;10.90;;;3.80;;
5867;SDS011;2960;49.142;7.768;2023-07-13T04:00:24;11.20;;;4.30;;
5867;SDS011;2960;49.142;7.768;2023-07-13T04:02:51;11.20;;;3.97;;
5867;SDS011;2960;49.142;7.768;2023-07-13T04:05:18;11.23;;;4.40;;
5867;SDS011;2960;49.142;7.768;2023-07-13T04:07:45;11.40;;;4.60;;
5867;SDS011;2960;49.142;7.768;2023-07-13T04:10:12;11.30;;;4.00;;
5867;SDS011;2960;49.142;7.768;2023-07-13T04:12:40;11.50;;;4.03;;
5867;SDS011;2960;49.142;7.768;2023-07-13T04:15:09;10.70;;;3.87;;
5867;SDS011;2960;49.142;7.768;2023-07-13T04:17:38;11.00;;;4.00;;
5867;SDS011;2960;49.142;7.768;2023-07-13T04:20:06;10.73;;;4.00;;
5867;SDS011;2960;49.142;7.768;2023-07-13T04:22:34;10.93;;;4.10;;
5867;SDS011;2960;49.142;7.768;2023-07-13T04:25:01;10.73;;;3.80;;
5867;SDS011;2960;49.142;7.768;2023-07-13T04:27:30;11.03;;;4.40;;
5867;SDS011;2960;49.142;7.768;2023-07-13T04:29:58;11.27;;;4.13;;
5867;SDS011;2960;49.142;7.768;2023-07-13T04:32:26;10.97;;;4.00;;
5867;SDS011;2960;49.142;7.768;2023-07-13T04:34:53;10.70;;;4.00;;
5867;SDS011;2960;49.142;7.768;2023-07-13T04:37:22;10.70;;;3.90;;
5867;SDS011;2960;49.142;7.768;2023-07-13T04:39:49;11.33;;;4.10;;
5867;SDS011;2960;49.142;7.768;2023-07-13T04:42:16;11.83;;;3.90;;
5867;SDS011;2960;49.142;7.768;2023-07-13T04:44:46;11.37;;;4.43;;
5867;SDS011;2960;49.142;7.768;2023-07-13T04:47:15;10.97;;;4.03;;
5867;SDS011;2960;49.142;7.768;2023-07-13T04:49:43;10.50;;;3.60;;
5867;SDS011;2960;49.142;7.768;2023-07-13T04:52:10;10.37;;;3.60;;
5867;SDS011;2960;49.142;7.768;2023-07-13T04:54:38;11.30;;;4.20;;
5867;SDS011;2960;49.142;7.768;2023-07-13T04:57:06;11.20;;;3.83;;
5867;SDS011;2960;49.142;7.768;2023-07-13T04:59:33;11.57;;;4.23;;
5867;SDS011;2960;49.142;7.768;2023-07-13T05:02:00;12.17;;;4.10;;
5867;SDS011;2960;49.142;7.768;2023-07-13T05:04:30;11.03;;;3.90;;
5867;SDS011;2960;49.142;7.768;2023-07-13T05:06:59;10.83;;;3.93;;
5867;SDS011;2960;49.142;7.768;2023-07-13T05:09:26;11.20;;;3.90;;
5867;SDS011;2960;49.142;7.768;2023-07-13T05:11:53;10.60;;;3.77;;
5867;SDS011;2960;49.142;7.768;2023-07-13T05:14:21;11.00;;;3.83;;
5867;SDS011;2960;49.142;7.768;2023-07-13T05:16:48;10.80;;;4.13;;
5867;SDS011;2960;49.142;7.768;2023-07-13T05:19:15;11.20;;;4.10;;
5867;SDS011;2960;49.142;7.768;2023-07-13T05:21:42;10.90;;;4.00;;
5867;SDS011;2960;49.142;7.768;2023-07-13T05:24:10;12.80;;;4.30;;
5867;SDS011;2960;49.142;7.768;2023-07-13T05:26:37;11.00;;;4.10;;
5867;SDS011;2960;49.142;7.768;2023-07-13T05:29:04;11.47;;;4.20;;
5867;SDS011;2960;49.142;7.768;2023-07-13T05:31:32;10.73;;;3.80;;
5867;SDS011;2960;49.142;7.768;2023-07-13T05:33:59;10.47;;;3.60;;
5867;SDS011;2960;49.142;7.768;2023-07-13T05:36:26;10.80;;;3.70;;
5867;SDS011;2960;49.142;7.768;2023-07-13T05:38:53;12.03;;;3.80;;
5867;SDS011;2960;49.142;7.768;2023-07-13T05:41:24;11.33;;;3.77;;
5867;SDS011;2960;49.142;7.768;2023-07-13T05:43:51;10.50;;;3.50;;
5867;SDS011;2960;49.142;7.768;2023-07-13T05:46:18;10.80;;;3.80;;
5867;SDS011;2960;49.142;7.768;2023-07-13T05:48:45;11.00;;;3.80;;
5867;SDS011;2960;49.142;7.768;2023-07-13T05:51:13;11.10;;;4.00;;
5867;SDS011;2960;49.142;7.768;2023-07-13T05:53:40;10.80;;;3.80;;
5867;SDS011;2960;49.142;7.768;2023-07-13T05:56:07;11.27;;;4.13;;
5867;SDS011;2960;49.142;7.768;2023-07-13T05:58:36;10.93;;;3.87;;
5867;SDS011;2960;49.142;7.768;2023-07-13T06:01:05;11.10;;;4.27;;
5867;SDS011;2960;49.142;7.768;2023-07-13T06:03:37;11.00;;;4.20;;
5867;SDS011;2960;49.142;7.768;2023-07-13T06:06:04;10.90;;;3.70;;
5867;SDS011;2960;49.142;7.768;2023-07-13T06:08:33;10.77;;;3.70;;
5867;SDS011;2960;49.142;7.768;2023-07-13T06:11:04;11.33;;;3.90;;
5867;SDS011;2960;49.142;7.768;2023-07-13T06:13:33;12.63;;;3.83;;
5867;SDS011;2960;49.142;7.768;2023-07-13T06:16:01;10.73;;;3.80;;
5867;SDS011;2960;49.142;7.768;2023-07-13T06:18:30;11.00;;;3.80;;
5867;SDS011;2960;49.142;7.768;2023-07-13T06:20:57;11.30;;;3.73;;
5867;SDS011;2960;49.142;7.768;2023-07-13T06:23:24;10.90;;;3.63;;
5867;SDS011;2960;49.142;7.768;2023-07-13T06:25:52;10.87;;;4.10;;
5867;SDS011;2960;49.142;7.768;2023-07-13T06:28:19;11.10;;;3.70;;
5867;SDS011;2960;49.142;7.768;2023-07-13T06:30:46;10.77;;;3.83;;
5867;SDS011;2960;49.142;7.768;2023-07-13T06:33:14;10.87;;;4.03;;
5867;SDS011;2960;49.142;7.768;2023-07-13T06:35:42;10.67;;;4.00;;
5867;SDS011;2960;49.142;7.768;2023-07-13T06:38:09;10.80;;;3.97;;
5867;SDS011;2960;49.142;7.768;2023-07-13T06:40:36;11.03;;;3.80;;
5867;SDS011;2960;49.142;7.768;2023-07-13T06:43:03;10.90;;;3.90;;
5867;SDS011;2960;49.142;7.768;2023-07-13T06:45:32;11.00;;;4.00;;
5867;SDS011;2960;49.142;7.768;2023-07-13T06:48:02;10.83;;;3.93;;
5867;SDS011;2960;49.142;7.768;2023-07-13T06:50:31;10.73;;;3.90;;
5867;SDS011;2960;49.142;7.768;2023-07-13T06:53:00;11.00;;;4.00;;
5867;SDS011;2960;49.142;7.768;2023-07-13T06:55:27;10.70;;;3.80;;
5867;SDS011;2960;49.142;7.768;2023-07-13T06:57:54;10.80;;;4.20;;
5867;SDS011;2960;49.142;7.768;2023-07-13T07:00:21;10.80;;;3.80;;
5867;SDS011;2960;49.142;7.768;2023-07-13T07:02:49;14.30;;;4.00;;
5867;SDS011;2960;49.142;7.768;2023-07-13T07:05:16;10.80;;;3.77;;
5867;SDS011;2960;49.142;7.768;2023-07-13T07:07:49;11.20;;;4.30;;
5867;SDS011;2960;49.142;7.768;2023-07-13T07:10:16;10.97;;;4.30;;
5867;SDS011;2960;49.142;7.768;2023-07-13T07:12:44;11.03;;;4.20;;
5867;SDS011;2960;49.142;7.768;2023-07-13T07:15:11;11.60;;;4.10;;
5867;SDS011;2960;49.142;7.768;2023-07-13T07:17:41;10.60;;;3.77;;
5867;SDS011;2960;49.142;7.768;2023-07-13T07:20:09;11.93;;;4.10;;
5867;SDS011;2960;49.142;7.768;2023-07-13T07:22:37;11.50;;;3.93;;
5867;SDS011;2960;49.142;7.768;2023-07-13T07:25:06;11.00;;;4.00;;
5867;SDS011;2960;49.142;7.768;2023-07-13T07:27:33;11.50;;;4.10;;
5867;SDS011;2960;49.142;7.768;2023-07-13T07:30:00;10.73;;;3.70;;
5867;SDS011;2960;49.142;7.768;2023-07-13T07:32:28;10.87;;;3.97;;
5867;SDS011;2960;49.142;7.768;2023-07-13T07:34:57;11.17;;;4.10;;
5867;SDS011;2960;49.142;7.768;2023-07-13T07:37:24;10.50;;;3.50;;
5867;SDS011;2960;49.142;7.768;2023-07-13T07:39:51;11.37;;;3.67;;
5867;SDS011;2960;49.142;7.768;2023-07-13T07:42:20;11.07;;;3.53;;
5867;SDS011;2960;49.142;7.768;2023-07-13T07:44:47;11.00;;;3.33;;
5867;SDS011;2960;49.142;7.768;2023-07-13T07:47:14;10.77;;;3.77;;
5867;SDS011;2960;49.142;7.768;2023-07-13T07:49:41;11.30;;;3.73;;
5867;SDS011;2960;49.142;7.768;2023-07-13T07:52:08;11.20;;;3.80;;
5867;SDS011;2960;49.142;7.768;2023-07-13T07:54:35;11.27;;;3.87;;
5867;SDS011;2960;49.142;7.768;2023-07-13T07:57:02;11.27;;;4.00;;
5867;SDS011;2960;49.142;7.768;2023-07-13T07:59:31;10.63;;;3.43;;
5867;SDS011;2960;49.142;7.768;2023-07-13T08:01:58;10.80;;;3.67;;
5867;SDS011;2960;49.142;7.768;2023-07-13T08:04:27;11.50;;;4.17;;
5867;SDS011;2960;49.142;7.768;2023-07-13T08:06:54;11.73;;;3.90;;
5867;SDS011;2960;49.142;7.768;2023-07-13T08:09:22;10.90;;;3.77;;
5867;SDS011;2960;49.142;7.768;2023-07-13T08:11:50;10.60;;;3.73;;
5867;SDS011;2960;49.142;7.768;2023-07-13T08:14:17;11.27;;;4.17;;
5867;SDS011;2960;49.142;7.768;2023-07-13T08:16:46;11.10;;;4.00;;
5867;SDS011;2960;49.142;7.768;2023-07-13T08:19:15;10.83;;;4.13;;
5867;SDS011;2960;49.142;7.768;2023-07-13T08:21:42;11.93;;;4.03;;
5867;SDS011;2960;49.142;7.768;2023-07-13T08:24:09;11.10;;;4.00;;
5867;SDS011;2960;49.142;7.768;2023-07-13T08:26:39;12.17;;;3.83;;
5867;SDS011;2960;49.142;7.768;2023-07-13T08:29:06;11.20;;;4.00;;
5867;SDS011;2960;49.142;7.768;2023-07-13T08:31:34;11.00;;;3.70;;
5867;SDS011;2960;49.142;7.768;2023-07-13T08:34:02;11.30;;;3.97;;
5867;SDS011;2960;49.142;7.768;2023-07-13T08:36:29;10.90;;;3.97;;
5867;SDS011;2960;49.142;7.768;2023-07-13T08:38:56;10.70;;;3.60;;
5867;SDS011;2960;49.142;7.768;2023-07-13T08:41:23;10.70;;;3.77;;
5867;SDS011;2960;49.142;7.768;2023-07-13T08:43:51;11.10;;;4.40;;
5867;SDS011;2960;49.142;7.768;2023-07-13T08:46:24;11.20;;;4.27;;
5867;SDS011;2960;49.142;7.768;2023-07-13T08:48:58;10.77;;;4.00;;
5867;SDS011;2960;49.142;7.768;2023-07-13T08:51:32;11.53;;;4.30;;
5867;SDS011;2960;49.142;7.768;2023-07-13T08:54:10;11.40;;;4.27;;
5867;SDS011;2960;49.142;7.768;2023-07-13T08:56:46;11.40;;;3.70;;
5867;SDS011;2960;49.142;7.768;2023-07-13T08:59:15;11.40;;;3.90;;
5867;SDS011;2960;49.142;7.768;2023-07-13T09:01:54;11.20;;;4.20;;
5867;SDS011;2960;49.142;7.768;2023-07-13T09:04:54;15.43;;;4.20;;
5867;SDS011;2960;49.142;7.768;2023-07-13T09:07:29;11.03;;;4.00;;
5867;SDS011;2960;49.142;7.768;2023-07-13T09:10:11;10.77;;;4.10;;
5867;SDS011;2960;49.142;7.768;2023-07-13T09:12:46;10.47;;;3.60;;
5867;SDS011;2960;49.142;7.768;2023-07-13T09:15:28;11.53;;;3.97;;
5867;SDS011;2960;49.142;7.768;2023-07-13T09:18:00;11.90;;;4.10;;
5867;SDS011;2960;49.142;7.768;2023-07-13T09:20:32;10.93;;;4.00;;
5867;SDS011;2960;49.142;7.768;2023-07-13T09:23:04;11.77;;;4.27;;
5867;SDS011;2960;49.142;7.768;2023-07-13T09:25:39;11.90;;;3.93;;
5867;SDS011;2960;49.142;7.768;2023-07-13T09:28:10;13.17;;;3.90;;
5867;SDS011;2960;49.142;7.768;2023-07-13T09:30:45;11.37;;;4.27;;
5867;SDS011;2960;49.142;7.768;2023-07-13T09:33:19;11.40;;;3.60;;
5867;SDS011;2960;49.142;7.768;2023-07-13T09:35:47;11.10;;;4.07;;
5867;SDS011;2960;49.142;7.768;2023-07-13T09:38:16;11.23;;;4.13;;
5867;SDS011;2960;49.142;7.768;2023-07-13T09:46:36;11.27;;;4.00;;
5867;SDS011;2960;49.142;7.768;2023-07-13T09:49:06;11.17;;;3.97;;
5867;SDS011;2960;49.142;7.768;2023-07-13T09:51:38;11.30;;;4.20;;
5867;SDS011;2960;49.142;7.768;2023-07-13T09:54:14;10.97;;;4.40;;
5867;SDS011;2960;49.142;7.768;2023-07-13T09:56:46;13.83;;;4.27;;
5867;SDS011;2960;49.142;7.768;2023-07-13T09:59:19;10.87;;;4.27;;
5867;SDS011;2960;49.142;7.768;2023-07-13T10:01:47;12.40;;;4.37;;
5867;SDS011;2960;49.142;7.768;2023-07-13T10:04:16;11.10;;;4.00;;
5867;SDS011;2960;49.142;7.768;2023-07-13T10:06:47;11.37;;;4.20;;
5867;SDS011;2960;49.142;7.768;2023-07-13T10:09:15;11.30;;;4.30;;
5867;SDS011;2960;49.142;7.768;2023-07-13T10:11:44;10.93;;;4.20;;
5867;SDS011;2960;49.142;7.768;2023-07-13T10:14:13;11.00;;;3.97;;
5867;SDS011;2960;49.142;7.768;2023-07-13T10:16:43;11.57;;;4.20;;
5867;SDS011;2960;49.142;7.768;2023-07-13T10:19:12;11.00;;;4.50;;
5867;SDS011;2960;49.142;7.768;2023-07-13T10:21:50;11.40;;;4.50;;
5867;SDS011;2960;49.142;7.768;2023-07-13T10:24:21;10.97;;;4.17;;
5867;SDS011;2960;49.142;7.768;2023-07-13T10:26:52;12.00;;;4.10;;
5867;SDS011;2960;49.142;7.768;2023-07-13T10:29:38;11.30;;;3.93;;
5867;SDS011;2960;49.142;7.768;2023-07-13T10:32:10;11.60;;;4.40;;
5867;SDS011;2960;49.142;7.768;2023-07-13T10:34:39;11.00;;;4.20;;
5867;SDS011;2960;49.142;7.768;2023-07-13T10:37:09;11.20;;;4.33;;
5867;SDS011;2960;49.142;7.768;2023-07-13T10:39:46;10.90;;;4.00;;
5867;SDS011;2960;49.142;7.768;2023-07-13T10:42:15;11.33;;;3.90;;
5867;SDS011;2960;49.142;7.768;2023-07-13T10:44:53;10.67;;;4.00;;
5867;SDS011;2960;49.142;7.768;2023-07-13T10:47:20;10.67;;;3.93;;
5867;SDS011;2960;49.142;7.768;2023-07-13T10:49:49;10.70;;;4.13;;
5867;SDS011;2960;49.142;7.768;2023-07-13T10:52:41;12.50;;;4.50;;
5867;SDS011;2960;49.142;7.768;2023-07-13T10:55:32;10.70;;;4.03;;
5867;SDS011;2960;49.142;7.768;2023-07-13T10:58:01;10.60;;;3.87;;
5867;SDS011;2960;49.142;7.768;2023-07-13T11:00:46;10.87;;;4.20;;
5867;SDS011;2960;49.142;7.768;2023-07-13T11:03:17;12.00;;;4.10;;
5867;SDS011;2960;49.142;7.768;2023-07-13T11:05:48;11.00;;;4.17;;
5867;SDS011;2960;49.142;7.768;2023-07-13T11:08:20;10.50;;;3.93;;
5867;SDS011;2960;49.142;7.768;2023-07-13T11:11:01;11.37;;;4.50;;
5867;SDS011;2960;49.142;7.768;2023-07-13T11:13:39;11.43;;;4.20;;
5867;SDS011;2960;49.142;7.768;2023-07-13T11:16:34;10.80;;;4.07;;
5867;SDS011;2960;49.142;7.768;2023-07-13T11:19:23;11.40;;;4.20;;
5867;SDS011;2960;49.142;7.768;2023-07-13T11:22:12;11.40;;;4.13;;
5867;SDS011;2960;49.142;7.768;2023-07-13T11:24:51;10.93;;;4.33;;
5867;SDS011;2960;49.142;7.768;2023-07-13T11:27:34;12.27;;;4.03;;
5867;SDS011;2960;49.142;7.768;2023-07-13T11:30:24;11.30;;;4.10;;
5867;SDS011;2960;49.142;7.768;2023-07-13T11:33:08;10.50;;;3.77;;
5867;SDS011;2960;49.142;7.768;2023-07-13T11:35:45;11.10;;;4.20;;
5867;SDS011;2960;49.142;7.768;2023-07-13T11:38:19;10.80;;;4.00;;
5867;SDS011;2960;49.142;7.768;2023-07-13T11:40:51;10.47;;;3.80;;
5867;SDS011;2960;49.142;7.768;2023-07-13T11:43:21;11.03;;;3.80;;
5867;SDS011;2960;49.142;7.768;2023-07-13T11:45:49;11.73;;;4.10;;
5867;SDS011;2960;49.142;7.768;2023-07-13T11:48:25;10.80;;;3.90;;
5867;SDS011;2960;49.142;7.768;2023-07-13T11:50:57;10.67;;;3.60;;
5867;SDS011;2960;49.142;7.768;2023-07-13T11:53:31;10.60;;;3.60;;
5867;SDS011;2960;49.142;7.768;2023-07-13T11:56:07;10.90;;;3.83;;
5867;SDS011;2960;49.142;7.768;2023-07-13T11:58:34;11.07;;;3.93;;
5867;SDS011;2960;49.142;7.768;2023-07-13T12:01:02;10.93;;;4.00;;
5867;SDS011;2960;49.142;7.768;2023-07-13T12:03:31;10.93;;;4.40;;
5867;SDS011;2960;49.142;7.768;2023-07-13T12:06:01;11.63;;;4.30;;
5867;SDS011;2960;49.142;7.768;2023-07-13T12:08:32;10.70;;;3.80;;
5867;SDS011;2960;49.142;7.768;2023-07-13T12:11:14;10.57;;;3.90;;
5867;SDS011;2960;49.142;7.768;2023-07-13T12:13:47;10.80;;;4.00;;
5867;SDS011;2960;49.142;7.768;2023-07-13T12:16:15;10.67;;;3.67;;
5867;SDS011;2960;49.142;7.768;2023-07-13T12:18:52;10.50;;;3.77;;
5867;SDS011;2960;49.142;7.768;2023-07-13T12:21:22;10.80;;;4.00;;
5867;SDS011;2960;49.142;7.768;2023-07-13T12:23:57;10.43;;;3.80;;
5867;SDS011;2960;49.142;7.768;2023-07-13T12:26:28;12.20;;;4.07;;
5867;SDS011;2960;49.142;7.768;2023-07-13T12:28:58;10.87;;;3.97;;
5867;SDS011;2960;49.142;7.768;2023-07-13T12:31:30;11.43;;;4.23;;
5867;SDS011;2960;49.142;7.768;2023-07-13T12:34:02;10.40;;;3.83;;
5867;SDS011;2960;49.142;7.768;2023-07-13T12:36:37;10.90;;;3.97;;
5867;SDS011;2960;49.142;7.768;2023-07-13T12:39:12;11.80;;;4.30;;
5867;SDS011;2960;49.142;7.768;2023-07-13T12:41:43;11.33;;;4.37;;
5867;SDS011;2960;49.142;7.768;2023-07-13T12:44:13;11.20;;;4.20;;
5867;SDS011;2960;49.142;7.768;2023-07-13T12:46:52;11.10;;;4.20;;
5867;SDS011;2960;49.142;7.768;2023-07-13T12:49:26;10.63;;;4.00;;
5867;SDS011;2960;49.142;7.768;2023-07-13T12:51:58;10.83;;;4.23;;
5867;SDS011;2960;49.142;7.768;2023-07-13T12:54:28;10.80;;;4.07;;
5867;SDS011;2960;49.142;7.768;2023-07-13T12:56:58;10.90;;;4.37;;
5867;SDS011;2960;49.142;7.768;2023-07-13T12:59:29;11.30;;;4.13;;
5867;SDS011;2960;49.142;7.768;2023-07-13T13:02:01;10.80;;;4.20;;
5867;SDS011;2960;49.142;7.768;2023-07-13T13:04:48;10.77;;;4.10;;
5867;SDS011;2960;49.142;7.768;2023-07-13T13:07:15;11.70;;;4.50;;
5867;SDS011;2960;49.142;7.768;2023-07-13T13:09:45;10.80;;;4.07;;
5867;SDS011;2960;49.142;7.768;2023-07-13T13:12:15;11.10;;;4.20;;
5867;SDS011;2960;49.142;7.768;2023-07-13T13:14:43;11.33;;;3.67;;
5867;SDS011;2960;49.142;7.768;2023-07-13T13:17:18;10.67;;;4.03;;
5867;SDS011;2960;49.142;7.768;2023-07-13T13:19:49;10.80;;;4.07;;
5867;SDS011;2960;49.142;7.768;2023-07-13T13:22:18;10.70;;;4.00;;
5867;SDS011;2960;49.142;7.768;2023-07-13T13:24:45;10.80;;;3.97;;
5867;SDS011;2960;49.142;7.768;2023-07-13T13:27:19;10.63;;;3.97;;
5867;SDS011;2960;49.142;7.768;2023-07-13T13:29:49;10.87;;;4.10;;
5867;SDS011;2960;49.142;7.768;2023-07-13T13:32:18;16.50;;;4.50;;
5867;SDS011;2960;49.142;7.768;2023-07-13T13:34:45;11.43;;;4.20;;
5867;SDS011;2960;49.142;7.768;2023-07-13T13:37:16;10.53;;;3.80;;
5867;SDS011;2960;49.142;7.768;2023-07-13T13:39:47;10.53;;;3.97;;
5867;SDS011;2960;49.142;7.768;2023-07-13T13:42:17;11.07;;;3.87;;
5867;SDS011;2960;49.142;7.768;2023-07-13T13:44:46;12.80;;;4.10;;
5867;SDS011;2960;49.142;7.768;2023-07-13T13:47:19;11.40;;;4.47;;
5867;SDS011;2960;49.142;7.768;2023-07-13T13:49:56;10.90;;;4.30;;
5867;SDS011;2960;49.142;7.768;2023-07-13T13:52:23;10.80;;;4.10;;
5867;SDS011;2960;49.142;7.768;2023-07-13T13:54:51;11.87;;;4.40;;
5867;SDS011;2960;49.142;7.768;2023-07-13T13:57:22;13.60;;;4.20;;
5867;SDS011;2960;49.142;7.768;2023-07-13T13:59:51;10.80;;;4.20;;
5867;SDS011;2960;49.142;7.768;2023-07-13T14:02:22;10.97;;;4.40;;
5867;SDS011;2960;49.142;7.768;2023-07-13T14:04:53;10.67;;;4.00;;
5867;SDS011;2960;49.142;7.768;2023-07-13T14:07:24;10.60;;;4.00;;
5867;SDS011;2960;49.142;7.768;2023-07-13T14:09:51;10.93;;;3.97;;
5867;SDS011;2960;49.142;7.768;2023-07-13T14:12:19;10.60;;;4.03;;
5867;SDS011;2960;49.142;7.768;2023-07-13T14:14:48;10.90;;;4.13;;
5867;SDS011;2960;49.142;7.768;2023-07-13T14:17:18;11.03;;;4.50;;
5867;SDS011;2960;49.142;7.768;2023-07-13T14:19:48;11.67;;;4.10;;
5867;SDS011;2960;49.142;7.768;2023-07-13T14:22:21;10.80;;;4.27;;
5867;SDS011;2960;49.142;7.768;2023-07-13T14:24:51;10.50;;;4.03;;
5867;SDS011;2960;49.142;7.768;2023-07-13T14:27:19;10.97;;;4.30;;
5867;SDS011;2960;49.142;7.768;2023-07-13T14:29:48;10.83;;;4.23;;
5867;SDS011;2960;49.142;7.768;2023-07-13T14:32:15;11.00;;;4.10;;
5867;SDS011;2960;49.142;7.768;2023-07-13T14:34:42;10.77;;;4.37;;
5867;SDS011;2960;49.142;7.768;2023-07-13T14:37:11;13.87;;;4.00;;
5867;SDS011;2960;49.142;7.768;2023-07-13T14:39:42;11.00;;;4.10;;
5867;SDS011;2960;49.142;7.768;2023-07-13T14:42:11;10.83;;;4.10;;
5867;SDS011;2960;49.142;7.768;2023-07-13T14:44:38;11.50;;;4.50;;
5867;SDS011;2960;49.142;7.768;2023-07-13T14:47:07;12.20;;;4.27;;
5867;SDS011;2960;49.142;7.768;2023-07-13T14:49:37;11.50;;;4.60;;
5867;SDS011;2960;49.142;7.768;2023-07-13T14:52:09;10.93;;;4.10;;
5867;SDS011;2960;49.142;7.768;2023-07-13T14:54:39;11.90;;;4.50;;
5867;SDS011;2960;49.142;7.768;2023-07-13T14:57:09;10.83;;;4.03;;
5867;SDS011;2960;49.142;7.768;2023-07-13T14:59:37;11.07;;;4.30;;
5867;SDS011;2960;49.142;7.768;2023-07-13T15:02:12;10.53;;;3.93;;
5867;SDS011;2960;49.142;7.768;2023-07-13T15:04:45;10.83;;;4.10;;
5867;SDS011;2960;49.142;7.768;2023-07-13T15:07:12;10.60;;;4.20;;
5867;SDS011;2960;49.142;7.768;2023-07-13T15:09:41;10.60;;;3.80;;
5867;SDS011;2960;49.142;7.768;2023-07-13T15:12:08;11.87;;;4.40;;
5867;SDS011;2960;49.142;7.768;2023-07-13T15:14:36;11.10;;;4.17;;
5867;SDS011;2960;49.142;7.768;2023-07-13T15:17:03;11.53;;;4.27;;
5867;SDS011;2960;49.142;7.768;2023-07-13T15:19:33;12.30;;;4.67;;
5867;SDS011;2960;49.142;7.768;2023-07-13T15:22:01;11.20;;;4.50;;